createdAt,value
2023-01-01T00:02:01.666Z,45.27
2023-01-01T00:04:30.268Z,52.77
2023-01-01T00:06:58.735Z,55.90
2023-01-01T00:09:44.957Z,51.60
2023-01-01T00:12:14.880Z,53.83
2023-01-01T00:14:44.530Z,48.47
2023-01-01T00:17:13.054Z,50.77
2023-01-01T00:19:41.534Z,48.13
2023-01-01T00:22:44.183Z,46.27
2023-01-01T00:24:58.352Z,50.10
2023-01-01T00:27:28.212Z,50.13
2023-01-01T00:29:56.618Z,51.57
2023-01-01T00:32:25.212Z,49.50
2023-01-01T00:34:53.825Z,41.23
2023-01-01T00:37:22.348Z,45.60
2023-01-01T00:39:50.851Z,46.67
2023-01-01T00:42:19.267Z,47.10
2023-01-01T00:44:49.202Z,50.23
2023-01-01T00:47:17.622Z,48.87
2023-01-01T00:49:46.086Z,40.67
2023-01-01T00:52:14.524Z,45.93
2023-01-01T00:54:43.056Z,42.07
2023-01-01T00:57:11.585Z,50.47
2023-01-01T00:59:40.046Z,45.63
2023-01-01T01:02:10.022Z,44.60
2023-01-01T01:04:38.542Z,46.57
2023-01-01T01:07:07.126Z,54.33
2023-01-01T01:09:35.676Z,44.47
2023-01-01T01:12:17.672Z,40.13
2023-01-01T01:14:47.371Z,43.63
2023-01-01T01:17:17.258Z,40.27
2023-01-01T01:19:45.663Z,41.00
2023-01-01T01:22:14.089Z,40.00
2023-01-01T01:24:42.563Z,41.57
2023-01-01T01:27:11.168Z,44.27
2023-01-01T01:29:39.647Z,40.10
2023-01-01T01:32:08.279Z,39.30
2023-01-01T01:34:38.092Z,43.40
2023-01-01T01:37:06.708Z,42.17
2023-01-01T01:39:35.264Z,41.03
2023-01-01T01:42:03.940Z,42.57
2023-01-01T01:44:52.219Z,36.80
2023-01-01T01:47:23.624Z,36.43
2023-01-01T01:49:56.686Z,43.50
2023-01-01T01:52:25.266Z,37.03
2023-01-01T01:54:54.347Z,35.67
2023-01-01T01:57:24.482Z,33.53
2023-01-01T01:59:55.880Z,35.27
2023-01-01T02:02:27.532Z,35.03
2023-01-01T02:04:57.520Z,39.03
2023-01-01T02:07:27.748Z,40.23
2023-01-01T02:09:56.259Z,33.40
2023-01-01T02:12:24.785Z,36.00
2023-01-01T02:14:53.269Z,35.67
2023-01-01T02:17:24.272Z,39.17
2023-01-01T02:20:04.944Z,38.93
2023-01-01T02:22:35.057Z,37.30
2023-01-01T02:25:12.069Z,35.73
2023-01-01T02:27:47.871Z,34.70
2023-01-01T02:30:17.892Z,41.87
2023-01-01T02:32:48.996Z,38.13
2023-01-01T02:35:38.798Z,32.10
2023-01-01T02:38:09.662Z,36.43
2023-01-01T02:40:39.680Z,31.30
2023-01-01T02:43:08.514Z,38.07
2023-01-01T02:45:38.347Z,37.30
2023-01-01T02:48:07.655Z,34.83
2023-01-01T02:50:36.828Z,37.53
2023-01-01T02:53:17.257Z,37.20
2023-01-01T02:55:49.726Z,36.40
2023-01-01T02:58:39.058Z,36.10
2023-01-01T03:01:11.743Z,36.33
2023-01-01T03:03:41.995Z,39.60
2023-01-01T03:06:27.182Z,40.93
2023-01-01T03:09:00.073Z,40.60
2023-01-01T03:11:32.959Z,40.87
2023-01-01T03:14:05.469Z,41.90
2023-01-01T03:16:38.462Z,35.93
2023-01-01T03:19:13.235Z,43.03
2023-01-01T03:21:43.758Z,36.80
2023-01-01T03:24:15.748Z,39.53
2023-01-01T03:26:44.808Z,38.07
2023-01-01T03:29:13.816Z,173.90
2023-01-01T03:31:45.431Z,95.60
2023-01-01T03:34:16.679Z,40.40
2023-01-01T03:36:46.789Z,42.03
2023-01-01T03:39:17.685Z,43.10
2023-01-01T03:41:49.066Z,42.63
2023-01-01T03:44:22.381Z,47.13
2023-01-01T03:46:52.629Z,45.93
2023-01-01T03:49:21.369Z,46.60
2023-01-01T03:52:04.706Z,42.17
2023-01-01T03:54:38.785Z,43.90
2023-01-01T03:57:10.947Z,42.20
2023-01-01T03:59:42.084Z,36.80
2023-01-01T04:02:12.845Z,36.07
2023-01-01T04:04:41.373Z,32.33
2023-01-01T04:07:15.110Z,33.53
2023-01-01T04:09:46.013Z,37.40
2023-01-01T04:12:14.656Z,37.83
2023-01-01T04:14:43.788Z,29.23
2023-01-01T04:17:14.651Z,32.27
2023-01-01T04:19:43.167Z,33.10
2023-01-01T04:22:11.890Z,33.13
2023-01-01T04:24:40.348Z,37.23
2023-01-01T04:27:08.813Z,31.57
2023-01-01T04:29:38.507Z,36.43
2023-01-01T04:32:07.043Z,38.23
2023-01-01T04:34:36.897Z,38.70
2023-01-01T04:37:11.287Z,41.30
2023-01-01T04:39:41.540Z,42.63
2023-01-01T04:42:09.990Z,44.33
2023-01-01T04:44:38.419Z,38.80
2023-01-01T04:47:07.050Z,42.90
2023-01-01T04:49:36.805Z,39.13
2023-01-01T04:52:05.180Z,41.97
2023-01-01T04:54:33.725Z,40.63
2023-01-01T04:57:02.201Z,44.20
2023-01-01T04:59:31.673Z,39.73
2023-01-01T05:02:00.790Z,43.33
2023-01-01T05:04:29.398Z,41.53
2023-01-01T05:06:59.252Z,45.90
2023-01-01T05:09:27.719Z,41.87
2023-01-01T05:11:56.660Z,44.63
2023-01-01T05:14:25.195Z,42.23
2023-01-01T05:16:54.672Z,42.07
2023-01-01T05:19:23.233Z,42.70
2023-01-01T05:21:51.752Z,41.13
2023-01-01T05:24:21.597Z,38.00
2023-01-01T05:26:50.208Z,37.03
2023-01-01T05:29:19.714Z,40.60
2023-01-01T05:31:48.258Z,46.97
2023-01-01T05:34:16.874Z,45.53
2023-01-01T05:36:45.290Z,40.73
2023-01-01T05:39:14.387Z,44.37
2023-01-01T05:41:44.250Z,42.50
2023-01-01T05:44:12.846Z,42.67
2023-01-01T05:46:41.540Z,44.03
2023-01-01T05:49:12.418Z,42.37
2023-01-01T05:56:36.770Z,44.63
2023-01-01T05:59:06.608Z,42.67
2023-01-01T06:01:41.674Z,39.20
2023-01-01T06:04:11.848Z,44.33
2023-01-01T06:06:40.380Z,46.53
2023-01-01T06:09:08.883Z,43.90
2023-01-01T06:11:37.471Z,43.17
2023-01-01T06:14:07.335Z,40.33
2023-01-01T06:16:35.895Z,46.60
2023-01-01T06:19:04.540Z,39.67
2023-01-01T06:21:32.940Z,37.50
2023-01-01T06:24:01.885Z,39.57
2023-01-01T06:26:31.482Z,34.67
2023-01-01T06:29:00.448Z,36.23
2023-01-01T06:31:34.302Z,41.70
2023-01-01T06:34:06.949Z,41.27
2023-01-01T06:36:35.404Z,36.97
2023-01-01T06:39:04.651Z,37.43
2023-01-01T06:41:33.261Z,47.87
2023-01-01T06:44:02.229Z,44.37
2023-01-01T06:46:32.912Z,45.83
2023-01-01T06:49:02.042Z,45.97
2023-01-01T06:51:31.063Z,45.00
2023-01-01T06:54:00.833Z,44.37
2023-01-01T06:56:29.636Z,51.97
2023-01-01T06:58:58.150Z,49.40
2023-01-01T07:01:27.398Z,54.67
2023-01-01T07:03:58.225Z,51.27
2023-01-01T07:06:27.291Z,52.00
2023-01-01T07:08:55.890Z,52.13
2023-01-01T07:11:24.657Z,47.00
2023-01-01T07:13:53.049Z,54.13
2023-01-01T07:16:22.006Z,46.80
2023-01-01T07:18:50.803Z,55.23
2023-01-01T07:21:30.702Z,47.00
2023-01-01T07:23:59.642Z,48.23
2023-01-01T07:26:29.669Z,49.30
2023-01-01T07:29:04.557Z,36.97
2023-01-01T07:31:35.723Z,44.27
2023-01-01T07:34:04.277Z,48.33
2023-01-01T07:36:34.157Z,47.87
2023-01-01T07:39:02.670Z,46.30
2023-01-01T07:41:31.301Z,34.90
2023-01-01T07:43:59.808Z,32.23
2023-01-01T07:46:28.459Z,23.13
2023-01-01T07:48:57.555Z,22.83
2023-01-01T07:51:26.066Z,18.60
2023-01-01T07:54:00.657Z,22.30
2023-01-01T07:56:30.767Z,18.00
2023-01-01T07:58:59.203Z,12.93
2023-01-01T08:01:27.755Z,13.27
2023-01-01T08:03:56.232Z,12.37
2023-01-01T08:06:24.619Z,12.57
2023-01-01T08:08:53.151Z,10.80
2023-01-01T08:11:23.094Z,10.07
2023-01-01T08:13:51.503Z,13.73
2023-01-01T08:16:20.002Z,11.47
2023-01-01T08:18:48.731Z,12.40
2023-01-01T08:21:17.138Z,13.67
2023-01-01T08:23:45.664Z,14.93
2023-01-01T08:26:16.770Z,15.13
2023-01-01T08:28:49.707Z,17.07
2023-01-01T08:31:22.116Z,18.03
2023-01-01T08:33:50.622Z,20.70
2023-01-01T08:36:20.851Z,20.47
2023-01-01T08:38:49.352Z,17.40
2023-01-01T08:41:17.827Z,20.50
2023-01-01T08:43:47.633Z,25.77
2023-01-01T08:46:16.188Z,20.47
2023-01-01T08:48:44.743Z,20.33
2023-01-01T08:51:13.141Z,19.97
2023-01-01T08:53:45.504Z,17.97
2023-01-01T08:56:19.067Z,19.30
2023-01-01T08:58:48.833Z,20.60
2023-01-01T09:01:17.361Z,21.27
2023-01-01T09:03:46.019Z,31.03
2023-01-01T09:06:14.524Z,44.43
2023-01-01T09:08:43.093Z,21.33
2023-01-01T09:11:18.028Z,20.50
2023-01-01T09:13:46.447Z,19.80
2023-01-01T09:16:16.353Z,18.80
2023-01-01T09:18:44.978Z,20.87
2023-01-01T09:21:13.430Z,20.43
2023-01-01T09:23:41.923Z,20.03
2023-01-01T09:26:11.571Z,22.87
2023-01-01T09:28:40.091Z,20.13
2023-01-01T09:31:08.600Z,21.47
2023-01-01T09:33:38.788Z,24.40
2023-01-01T09:36:16.855Z,24.07
2023-01-01T09:38:45.354Z,20.47
2023-01-01T09:41:18.346Z,20.93
2023-01-01T09:43:52.283Z,23.23
2023-01-01T09:46:25.040Z,23.03
2023-01-01T09:49:00.126Z,22.03
2023-01-01T09:51:30.560Z,22.13
2023-01-01T09:54:01.480Z,29.07
2023-01-01T09:56:31.393Z,23.83
2023-01-01T09:59:00.217Z,21.37
2023-01-01T10:01:35.738Z,23.53
2023-01-01T10:04:12.569Z,21.00
2023-01-01T10:06:45.908Z,21.60
2023-01-01T10:09:22.136Z,20.97
2023-01-01T10:11:55.969Z,19.03
2023-01-01T10:14:28.788Z,20.30
2023-01-01T10:16:58.492Z,21.13
2023-01-01T10:19:32.810Z,18.00
2023-01-01T10:22:03.999Z,19.00
2023-01-01T10:24:37.999Z,19.93
2023-01-01T10:27:07.437Z,22.93
2023-01-01T10:29:40.506Z,23.73
2023-01-01T10:32:17.070Z,24.97
2023-01-01T10:34:46.909Z,23.13
2023-01-01T10:37:16.242Z,22.93
2023-01-01T10:39:45.443Z,23.27
2023-01-01T10:42:14.255Z,23.87
2023-01-01T10:44:43.211Z,22.70
2023-01-01T10:47:25.651Z,25.80
2023-01-01T10:49:57.717Z,22.90
2023-01-01T10:52:31.778Z,22.07
2023-01-01T10:55:01.064Z,23.67
2023-01-01T10:57:34.243Z,22.47
2023-01-01T11:00:11.759Z,21.83
2023-01-01T11:02:40.291Z,22.30
2023-01-01T11:05:21.491Z,20.33
2023-01-01T11:07:50.586Z,33.53
2023-01-01T11:10:20.613Z,25.27
2023-01-01T11:13:06.524Z,21.60
2023-01-01T11:15:38.279Z,22.53
2023-01-01T11:18:07.902Z,24.50
2023-01-01T11:20:37.721Z,23.83
2023-01-01T11:23:19.426Z,20.27
2023-01-01T11:25:58.703Z,18.07
2023-01-01T11:28:27.196Z,23.17
2023-01-01T11:31:09.905Z,16.87
2023-01-01T11:33:39.976Z,19.73
2023-01-01T11:36:10.398Z,17.30
2023-01-01T11:38:38.845Z,22.43
2023-01-01T11:41:08.489Z,21.67
2023-01-01T11:43:40.475Z,18.33
2023-01-01T11:46:10.997Z,20.20
2023-01-01T11:48:43.016Z,20.43
2023-01-01T11:51:29.444Z,18.77
2023-01-01T11:54:11.086Z,18.30
2023-01-01T11:56:39.617Z,17.23
2023-01-01T11:59:14.848Z,19.07
2023-01-01T12:01:46.672Z,24.30
2023-01-01T12:04:18.297Z,18.67
2023-01-01T12:06:49.790Z,19.53
2023-01-01T12:09:21.384Z,19.37
2023-01-01T12:11:51.891Z,20.73
2023-01-01T12:14:25.991Z,19.00
2023-01-01T12:17:00.141Z,21.17
2023-01-01T12:19:30.339Z,19.90
2023-01-01T12:22:01.698Z,20.77
2023-01-01T12:24:33.977Z,20.13
2023-01-01T12:27:11.213Z,19.53
2023-01-01T12:29:44.793Z,19.63
2023-01-01T12:32:17.265Z,19.50
2023-01-01T12:34:50.399Z,18.30
2023-01-01T12:37:28.260Z,16.27
2023-01-01T12:40:19.678Z,18.03
2023-01-01T12:42:58.808Z,18.20
2023-01-01T12:45:33.877Z,19.50
2023-01-01T12:48:05.755Z,19.80
2023-01-01T12:50:40.281Z,19.77
2023-01-01T12:53:18.691Z,22.33
2023-01-01T12:56:03.312Z,21.67
2023-01-01T12:58:33.518Z,19.33
2023-01-01T13:01:03.492Z,20.93
2023-01-01T13:03:34.785Z,17.33
2023-01-01T13:06:03.598Z,19.33
2023-01-01T13:08:34.358Z,16.60
2023-01-01T13:11:04.920Z,16.03
2023-01-01T13:13:33.395Z,14.83
2023-01-01T13:16:02.020Z,16.70
2023-01-01T13:18:33.242Z,16.80
2023-01-01T13:21:06.602Z,17.67
2023-01-01T13:23:49.346Z,16.33
2023-01-01T13:26:36.304Z,19.27
2023-01-01T13:29:23.204Z,15.90
2023-01-01T13:32:10.587Z,13.43
2023-01-01T13:34:53.874Z,15.10
2023-01-01T13:37:45.053Z,26.50
2023-01-01T13:40:31.973Z,22.63
2023-01-01T13:43:09.139Z,19.67
2023-01-01T13:48:52.884Z,20.57
2023-01-01T13:52:04.366Z,21.67
2023-01-01T13:54:27.017Z,23.37
2023-01-01T13:56:57.505Z,19.57
2023-01-01T13:59:33.251Z,18.93
2023-01-01T14:02:15.052Z,18.37
2023-01-01T14:04:46.068Z,16.37
2023-01-01T14:10:24.739Z,11.93
2023-01-01T14:12:54.027Z,14.27
2023-01-01T14:15:28.677Z,14.90
2023-01-01T14:18:00.139Z,12.43
2023-01-01T14:20:33.947Z,13.30
2023-01-01T14:23:06.230Z,12.43
2023-01-01T14:25:34.720Z,12.30
2023-01-01T14:28:03.226Z,12.03
2023-01-01T14:30:34.099Z,14.00
2023-01-01T14:33:03.787Z,13.50
2023-01-01T14:35:32.288Z,14.57
2023-01-01T14:38:18.256Z,13.57
2023-01-01T14:40:47.017Z,12.37
2023-01-01T14:43:15.459Z,12.77
2023-01-01T14:45:45.881Z,12.63
2023-01-01T14:48:19.487Z,13.67
2023-01-01T14:50:49.823Z,14.90
2023-01-01T14:53:21.231Z,16.53
2023-01-01T14:55:50.758Z,14.53
2023-01-01T14:58:20.354Z,13.37
2023-01-01T15:00:50.270Z,15.80
2023-01-01T15:03:19.400Z,16.13
2023-01-01T15:05:48.571Z,16.90
2023-01-01T15:08:21.293Z,16.17
2023-01-01T15:10:50.248Z,16.40
2023-01-01T15:13:19.741Z,19.37
2023-01-01T15:15:49.094Z,18.47
2023-01-01T15:18:36.291Z,18.40
2023-01-01T15:21:06.442Z,15.90
2023-01-01T15:23:36.169Z,18.70
2023-01-01T15:26:08.479Z,18.03
2023-01-01T15:28:38.267Z,16.23
2023-01-01T15:31:07.205Z,16.50
2023-01-01T15:33:35.632Z,19.37
2023-01-01T15:36:04.104Z,16.47
2023-01-01T15:38:35.550Z,17.77
2023-01-01T15:41:24.514Z,16.90
2023-01-01T15:43:52.941Z,16.37
2023-01-01T15:46:26.102Z,17.53
2023-01-01T15:48:57.322Z,18.70
2023-01-01T15:51:26.637Z,21.67
2023-01-01T15:53:57.567Z,17.60
2023-01-01T15:56:26.817Z,15.20
2023-01-01T15:58:56.855Z,17.13
2023-01-01T16:01:26.431Z,17.93
2023-01-01T16:04:00.449Z,18.83
2023-01-01T16:06:28.999Z,18.00
2023-01-01T16:08:58.962Z,28.63
2023-01-01T16:11:27.434Z,26.27
2023-01-01T16:13:55.986Z,21.97
2023-01-01T16:16:29.021Z,19.60
2023-01-01T16:18:58.011Z,28.83
2023-01-01T16:21:28.516Z,40.80
2023-01-01T16:23:57.311Z,35.30
2023-01-01T16:26:27.215Z,33.67
2023-01-01T16:28:55.756Z,20.60
2023-01-01T16:31:26.441Z,19.30
2023-01-01T16:33:56.107Z,22.23
2023-01-01T16:36:24.990Z,19.50
2023-01-01T16:38:53.454Z,18.07
2023-01-01T16:41:21.965Z,18.83
2023-01-01T16:43:51.999Z,20.50
2023-01-01T16:46:20.481Z,21.40
2023-01-01T16:48:49.027Z,25.03
2023-01-01T16:51:19.616Z,24.87
2023-01-01T16:53:48.635Z,18.00
2023-01-01T16:56:17.395Z,17.50
2023-01-01T16:58:52.154Z,24.90
2023-01-01T17:01:24.588Z,186.10
2023-01-01T17:03:53.218Z,35.40
2023-01-01T17:06:21.732Z,32.33
2023-01-01T17:08:50.190Z,35.50
2023-01-01T17:11:20.507Z,47.70
2023-01-01T17:13:49.814Z,27.00
2023-01-01T17:16:25.477Z,29.30
2023-01-01T17:19:15.047Z,24.07
2023-01-01T17:21:45.556Z,26.57
2023-01-01T17:24:14.012Z,27.17
2023-01-01T17:26:42.491Z,31.67
2023-01-01T17:29:11.894Z,35.10
2023-01-01T17:31:40.659Z,31.77
2023-01-01T17:34:14.219Z,28.43
2023-01-01T17:36:43.309Z,33.23
2023-01-01T17:39:12.455Z,32.80
2023-01-01T17:41:41.178Z,29.17
2023-01-01T17:44:09.704Z,57.57
2023-01-01T17:46:38.293Z,52.47
2023-01-01T17:49:09.026Z,37.40
2023-01-01T17:51:39.478Z,32.47
2023-01-01T17:54:11.690Z,30.40
2023-01-01T17:56:40.233Z,40.97
2023-01-01T17:59:09.415Z,35.93
2023-01-01T18:01:38.070Z,33.27
2023-01-01T18:04:07.495Z,36.60
2023-01-01T18:06:41.469Z,63.37
2023-01-01T18:09:14.176Z,32.27
2023-01-01T18:11:42.706Z,37.33
2023-01-01T18:14:11.566Z,48.50
2023-01-01T18:16:41.441Z,47.80
2023-01-01T18:19:09.909Z,57.30
2023-01-01T18:21:38.425Z,83.00
2023-01-01T18:24:08.962Z,66.00
2023-01-01T18:26:38.867Z,56.57
2023-01-01T18:29:07.351Z,51.57
2023-01-01T18:31:36.673Z,37.40
2023-01-01T18:34:06.936Z,57.63
2023-01-01T18:36:36.194Z,53.37
2023-01-01T18:39:08.578Z,31.00
2023-01-01T18:41:51.860Z,34.40
2023-01-01T18:44:22.862Z,28.07
2023-01-01T18:46:55.103Z,28.70
2023-01-01T18:49:25.517Z,26.63
2023-01-01T18:51:56.851Z,27.77
2023-01-01T18:54:26.795Z,42.73
2023-01-01T18:57:02.211Z,36.20
2023-01-01T18:59:31.960Z,54.77
2023-01-01T19:02:00.531Z,65.23
2023-01-01T19:04:29.017Z,34.50
2023-01-01T19:06:57.583Z,32.70
2023-01-01T19:09:27.028Z,30.77
2023-01-01T19:11:56.640Z,36.27
2023-01-01T19:14:25.841Z,74.53
2023-01-01T19:16:57.628Z,77.37
2023-01-01T19:19:27.207Z,51.77
2023-01-01T19:21:59.303Z,69.17
2023-01-01T19:24:29.482Z,55.90
2023-01-01T19:26:58.806Z,41.93
2023-01-01T19:29:27.911Z,41.20
2023-01-01T19:31:58.632Z,42.10
2023-01-01T19:34:27.258Z,42.50
2023-01-01T19:36:55.735Z,45.17
2023-01-01T19:39:24.170Z,38.43
2023-01-01T19:41:52.604Z,39.87
2023-01-01T19:44:25.007Z,42.60
2023-01-01T19:46:53.944Z,57.80
2023-01-01T19:49:23.947Z,59.47
2023-01-01T19:51:52.360Z,50.90
2023-01-01T19:54:20.771Z,66.63
2023-01-01T19:56:49.353Z,63.10
2023-01-01T19:59:18.199Z,51.90
2023-01-01T20:01:50.177Z,55.37
2023-01-01T20:04:27.730Z,49.73
2023-01-01T20:06:56.237Z,49.73
2023-01-01T20:09:24.731Z,53.17
2023-01-01T20:11:53.144Z,65.37
2023-01-01T20:14:21.537Z,54.97
2023-01-01T20:16:50.940Z,50.73
2023-01-01T20:19:19.539Z,77.47
2023-01-01T20:22:06.982Z,35.83
2023-01-01T20:24:35.550Z,49.07
2023-01-01T20:27:03.966Z,34.43
2023-01-01T20:29:32.439Z,30.53
2023-01-01T20:32:00.980Z,35.27
2023-01-01T20:34:29.578Z,37.37
2023-01-01T20:37:16.857Z,38.83
2023-01-01T20:39:45.303Z,37.30
2023-01-01T20:42:13.849Z,38.13
2023-01-01T20:44:43.276Z,37.50
2023-01-01T20:47:11.876Z,32.63
2023-01-01T20:49:40.470Z,34.80
2023-01-01T20:52:10.308Z,33.73
2023-01-01T20:54:38.885Z,37.27
2023-01-01T20:57:07.369Z,34.23
2023-01-01T20:59:37.866Z,35.53
2023-01-01T21:02:06.863Z,35.17
2023-01-01T21:04:38.791Z,40.73
2023-01-01T21:07:07.777Z,40.93
2023-01-01T21:09:37.592Z,42.87
2023-01-01T21:12:06.252Z,38.53
2023-01-01T21:14:34.770Z,34.43
2023-01-01T21:17:04.022Z,33.13
2023-01-01T21:19:32.549Z,39.93
2023-01-01T21:22:01.119Z,33.70
2023-01-01T21:24:30.313Z,38.67
2023-01-01T21:27:03.094Z,35.07
2023-01-01T21:29:33.903Z,45.97
2023-01-01T21:32:10.284Z,35.07
2023-01-01T21:34:41.107Z,40.63
2023-01-01T21:37:13.286Z,36.33
2023-01-01T21:39:41.717Z,143.87
2023-01-01T21:42:18.424Z,52.03
2023-01-01T21:44:49.136Z,50.40
2023-01-01T21:47:21.636Z,42.10
2023-01-01T21:49:50.170Z,37.93
2023-01-01T21:52:21.001Z,42.10
2023-01-01T21:54:49.369Z,34.90
2023-01-01T21:57:20.704Z,35.33
2023-01-01T21:59:49.271Z,34.83
2023-01-01T22:02:35.762Z,43.97
2023-01-01T22:05:13.398Z,41.80
2023-01-01T22:07:58.602Z,41.17
2023-01-01T22:10:28.356Z,55.90
2023-01-01T22:13:00.933Z,65.57
2023-01-01T22:15:31.191Z,53.63
2023-01-01T22:18:07.829Z,48.10
2023-01-01T22:20:38.248Z,50.00
2023-01-01T22:23:12.744Z,54.93
2023-01-01T22:25:41.165Z,46.03
2023-01-01T22:28:17.421Z,43.97
2023-01-01T22:30:46.156Z,52.10
2023-01-01T22:33:17.573Z,46.20
2023-01-01T22:35:46.371Z,47.53
2023-01-01T22:38:16.956Z,51.80
2023-01-01T22:40:48.181Z,49.80
2023-01-01T22:43:19.549Z,50.97
2023-01-01T22:45:48.731Z,51.23
2023-01-01T22:48:20.658Z,48.83
2023-01-01T22:50:50.091Z,46.70
2023-01-01T22:53:18.456Z,48.37
2023-01-01T22:55:47.047Z,51.57
2023-01-01T22:58:15.549Z,46.70
2023-01-01T23:00:45.735Z,45.03
2023-01-01T23:03:14.290Z,44.00
2023-01-01T23:05:42.899Z,42.33
2023-01-01T23:08:11.376Z,46.73
2023-01-01T23:10:39.897Z,40.90
2023-01-01T23:13:22.315Z,43.63
2023-01-01T23:16:01.343Z,45.97
2023-01-01T23:18:32.748Z,41.43
2023-01-01T23:21:01.777Z,46.10
2023-01-01T23:23:30.617Z,43.40
2023-01-01T23:25:59.603Z,44.70
2023-01-01T23:28:28.915Z,44.57
2023-01-01T23:30:59.433Z,46.13
2023-01-01T23:33:28.081Z,46.20
2023-01-01T23:35:56.503Z,49.37
2023-01-01T23:38:25.175Z,39.00
2023-01-01T23:40:53.660Z,42.50
2023-01-01T23:43:22.178Z,46.97
2023-01-01T23:45:50.806Z,50.53
2023-01-01T23:48:20.946Z,45.27
2023-01-01T23:50:49.611Z,46.17
2023-01-01T23:53:18.049Z,52.83
2023-01-01T23:55:46.484Z,43.03
2023-01-01T23:58:16.781Z,47.90
